CheckWX is a tool to help pilots better visualize weather data.  It is not intended as a substitute for an official pre-flight weather briefing.

19:30:05 UTC

KMYR METAR
Myrtle Beach International Airport
Myrtle Beach, South Carolina, USA
Current

34 mins ago

KMYR 261856Z VRB06KT 10SM CLR 34/24 A3004 RMK AO2 SLP171 T03390239
Observed
May-26 @ 18:56 UTC
Wind
  • Variable at 6 KTS
Visibility
10 SM
Flight Rules
VFR
Cloud Levels
  • Clear skies
Temperature
34°C / 93°F
Dewpoint
24°C / 75°F
Heat Index
41°C / 105°F
Humidity
56%
Altimeter
30.04" Hg
Pressure
1017.32 hPa
Previous

2 hours ago

KMYR 261756Z 18011KT 10SM SCT070 34/23 A3005 RMK AO2 SLP175 T03390233 10344 20272 58015
Observed
May-26 @ 17:56 UTC
Wind
  • 180° at 11 KTS
Visibility
10 SM
Flight Rules
VFR
Cloud Levels
  • Scattered at 7,000' AGL
Temperature
34°C / 93°F
Dewpoint
23°C / 73°F
Heat Index
39°C / 103°F
Humidity
53%
Altimeter
30.05" Hg
Pressure
1017.62 hPa
Previous

3 hours ago

KMYR 261656Z 18011KT 10SM CLR 34/22 A3007 RMK AO2 SLP183 T03390222
Observed
May-26 @ 16:56 UTC
Wind
  • 180° at 11 KTS
Visibility
10 SM
Flight Rules
VFR
Cloud Levels
  • Clear skies
Temperature
34°C / 93°F
Dewpoint
22°C / 72°F
Heat Index
38°C / 100°F
Humidity
49%
Altimeter
30.07" Hg
Pressure
1018.32 hPa